createdAt,value
2022-10-22T00:00:44.141Z,7.45
2022-10-22T00:03:11.791Z,7.35
2022-10-22T00:05:39.288Z,5.95
2022-10-22T00:08:06.599Z,6.53
2022-10-22T00:10:33.800Z,5.28
2022-10-22T00:13:01.163Z,6.30
2022-10-22T00:15:28.546Z,7.72
2022-10-22T00:17:55.863Z,6.60
2022-10-22T00:20:23.163Z,4.30
2022-10-22T00:25:17.988Z,4.75
2022-10-22T00:27:45.372Z,4.88
2022-10-22T00:30:12.936Z,4.90
2022-10-22T00:32:40.457Z,5.70
2022-10-22T00:35:08.381Z,7.18
2022-10-22T00:37:35.706Z,5.20
2022-10-22T00:40:04.571Z,5.47
2022-10-22T00:42:32.020Z,4.53
2022-10-22T00:45:11.229Z,4.82
2022-10-22T00:47:44.964Z,4.40
2022-10-22T00:50:17.365Z,5.78
2022-10-22T00:52:44.925Z,4.53
2022-10-22T00:55:13.691Z,5.00
2022-10-22T00:57:41.024Z,5.25
2022-10-22T01:00:09.138Z,5.03
2022-10-22T01:02:36.634Z,5.45
2022-10-22T01:05:06.157Z,5.72
2022-10-22T01:07:41.392Z,5.20
2022-10-22T01:13:15.077Z,6.13
2022-10-22T01:16:07.598Z,6.20
2022-10-22T01:19:01.890Z,5.78
2022-10-22T01:21:41.360Z,6.50
2022-10-22T01:24:28.773Z,5.20
2022-10-22T01:27:08.055Z,4.53
2022-10-22T01:30:08.050Z,5.45
2022-10-22T01:32:42.014Z,4.72
2022-10-22T01:35:12.865Z,4.25
2022-10-22T01:37:49.329Z,5.05
2022-10-22T01:40:17.795Z,4.50
2022-10-22T01:43:05.136Z,4.60
2022-10-22T01:45:37.512Z,5.22
2022-10-22T01:48:34.140Z,4.80
2022-10-22T01:51:13.828Z,4.78
2022-10-22T01:53:59.837Z,5.07
2022-10-22T01:56:49.995Z,4.47
2022-10-22T01:59:42.008Z,6.60
2022-10-22T02:02:29.945Z,5.20
2022-10-22T02:05:07.399Z,4.43
2022-10-22T02:07:42.708Z,5.15
2022-10-22T02:10:12.098Z,7.00
2022-10-22T02:12:42.866Z,4.85
2022-10-22T02:15:34.084Z,5.38
2022-10-22T02:18:02.678Z,4.32
2022-10-22T02:20:35.554Z,4.68
2022-10-22T02:23:04.210Z,5.30
2022-10-22T02:25:36.837Z,4.75
2022-10-22T02:28:25.601Z,4.97
2022-10-22T02:31:00.926Z,6.05
2022-10-22T02:33:34.673Z,5.95
2022-10-22T02:36:03.606Z,6.72
2022-10-22T02:38:32.205Z,7.88
2022-10-22T02:40:59.551Z,9.95
2022-10-22T02:43:29.939Z,7.80
2022-10-22T02:45:57.879Z,6.75
2022-10-22T02:48:24.987Z,8.20
2022-10-22T02:50:52.279Z,12.18
2022-10-22T02:53:20.539Z,11.85
2022-10-22T02:55:47.796Z,8.32
2022-10-22T02:58:15.301Z,9.07
2022-10-22T03:00:42.886Z,9.43
2022-10-22T03:03:10.145Z,9.25
2022-10-22T03:05:37.500Z,10.32
2022-10-22T03:08:05.071Z,10.02
2022-10-22T03:10:32.270Z,11.40
2022-10-22T03:12:59.635Z,13.30
2022-10-22T03:17:55.478Z,11.05
2022-10-22T03:20:23.797Z,10.30
2022-10-22T03:22:51.500Z,10.80
2022-10-22T03:25:22.623Z,13.32
2022-10-22T03:27:52.661Z,13.02
2022-10-22T03:30:20.946Z,11.75
2022-10-22T03:32:49.907Z,10.90
2022-10-22T03:35:17.277Z,14.52
2022-10-22T03:37:44.668Z,16.80
2022-10-22T03:40:13.059Z,12.43
2022-10-22T03:42:42.090Z,11.18
2022-10-22T03:45:10.466Z,10.00
2022-10-22T03:47:37.948Z,12.82
2022-10-22T03:50:06.520Z,9.98
2022-10-22T03:52:40.604Z,9.02
2022-10-22T03:55:09.271Z,6.80
2022-10-22T03:57:38.016Z,7.10
2022-10-22T04:00:06.810Z,8.15
2022-10-22T04:02:34.194Z,5.55
2022-10-22T04:05:02.000Z,8.82
2022-10-22T04:07:31.365Z,6.00
2022-10-22T04:09:58.709Z,6.35
2022-10-22T04:12:26.449Z,7.45
2022-10-22T04:14:54.051Z,4.90
2022-10-22T04:17:21.251Z,5.82
2022-10-22T04:19:50.043Z,8.20
2022-10-22T04:22:20.057Z,5.22
2022-10-22T04:24:47.411Z,6.60
2022-10-22T04:27:15.185Z,9.70
2022-10-22T04:29:42.451Z,7.30
2022-10-22T04:32:12.231Z,5.60
2022-10-22T04:34:39.429Z,6.60
2022-10-22T04:37:08.291Z,4.90
2022-10-22T04:39:36.760Z,6.75
2022-10-22T04:42:04.494Z,8.50
2022-10-22T04:44:31.742Z,6.22
2022-10-22T04:46:59.448Z,8.43
2022-10-22T04:49:26.593Z,7.85
2022-10-22T04:51:54.116Z,6.60
2022-10-22T04:54:21.586Z,7.82
2022-10-22T04:56:48.900Z,8.63
2022-10-22T04:59:16.263Z,7.95
2022-10-22T05:01:46.137Z,13.57
2022-10-22T05:04:16.369Z,8.88
2022-10-22T05:06:44.130Z,12.30
2022-10-22T05:09:21.108Z,8.30
2022-10-22T05:11:54.049Z,8.68
2022-10-22T05:14:24.430Z,12.45
2022-10-22T05:16:52.497Z,7.70
2022-10-22T05:19:24.248Z,7.75
2022-10-22T05:21:53.676Z,8.43
2022-10-22T05:24:21.781Z,12.32
2022-10-22T05:26:51.084Z,8.98
2022-10-22T05:29:18.468Z,7.80
2022-10-22T05:31:46.077Z,9.48
2022-10-22T05:34:15.486Z,9.43
2022-10-22T05:36:42.704Z,13.48
2022-10-22T05:39:10.133Z,10.13
2022-10-22T05:41:38.423Z,9.77
2022-10-22T05:44:06.196Z,11.82
2022-10-22T05:46:36.976Z,10.02
2022-10-22T05:49:07.310Z,12.68
2022-10-22T05:51:37.327Z,7.80
2022-10-22T05:54:07.712Z,10.85
2022-10-22T05:56:35.839Z,8.63
2022-10-22T05:59:05.707Z,10.40
2022-10-22T06:01:37.759Z,12.38
2022-10-22T06:04:07.687Z,4.45
2022-10-22T06:06:38.423Z,7.25
2022-10-22T06:09:22.587Z,8.60
2022-10-22T06:11:51.068Z,6.45
2022-10-22T06:14:20.514Z,5.95
2022-10-22T06:16:47.806Z,8.65
2022-10-22T06:19:17.518Z,13.13
2022-10-22T06:21:45.721Z,5.75
2022-10-22T06:24:14.093Z,7.68
2022-10-22T06:26:42.025Z,4.70
2022-10-22T06:29:09.961Z,7.95
2022-10-22T06:31:37.454Z,5.53
2022-10-22T06:34:06.840Z,8.38
2022-10-22T06:36:35.059Z,9.98
2022-10-22T06:39:02.572Z,9.00
2022-10-22T06:41:29.852Z,12.80
2022-10-22T06:43:58.213Z,11.27
2022-10-22T06:46:26.341Z,7.82
2022-10-22T06:49:00.962Z,9.85
2022-10-22T06:51:31.650Z,6.53
2022-10-22T06:53:59.654Z,9.35
2022-10-22T06:56:30.040Z,9.60
2022-10-22T06:58:58.550Z,7.03
2022-10-22T07:01:32.930Z,7.07
2022-10-22T07:04:01.044Z,7.68
2022-10-22T07:06:29.548Z,5.93
2022-10-22T07:08:59.065Z,6.97
2022-10-22T07:11:29.956Z,6.60
2022-10-22T07:14:01.532Z,5.25
2022-10-22T07:16:32.033Z,5.95
2022-10-22T07:19:41.377Z,7.78
2022-10-22T07:22:08.695Z,8.85
2022-10-22T07:24:36.040Z,5.72
2022-10-22T07:27:05.045Z,6.32
2022-10-22T07:29:33.373Z,4.80
2022-10-22T07:32:00.556Z,3.78
2022-10-22T07:34:27.933Z,4.47
2022-10-22T07:36:56.846Z,5.93
2022-10-22T07:39:25.938Z,5.63
2022-10-22T07:41:53.348Z,6.22
2022-10-22T07:44:20.529Z,5.47
2022-10-22T07:46:48.972Z,3.33
2022-10-22T07:49:16.515Z,4.50
2022-10-22T07:51:43.738Z,5.25
2022-10-22T07:54:11.024Z,4.72
2022-10-22T07:56:38.713Z,5.05
2022-10-22T07:59:06.010Z,7.85
2022-10-22T08:01:33.321Z,4.68
2022-10-22T08:04:00.552Z,6.93
2022-10-22T08:06:27.932Z,4.15
2022-10-22T08:08:55.109Z,5.50
2022-10-22T08:11:22.355Z,3.45
2022-10-22T08:13:49.494Z,3.58
2022-10-22T08:16:16.759Z,3.28
2022-10-22T08:18:45.897Z,7.43
2022-10-22T08:21:13.950Z,5.25
2022-10-22T08:23:41.931Z,5.32
2022-10-22T08:26:10.238Z,6.35
2022-10-22T08:28:37.909Z,4.65
2022-10-22T08:31:07.720Z,4.53
2022-10-22T08:33:35.154Z,3.70
2022-10-22T08:36:02.697Z,3.45
2022-10-22T08:38:31.655Z,4.72
2022-10-22T08:41:21.850Z,3.83
2022-10-22T08:44:26.086Z,3.67
2022-10-22T08:47:18.742Z,7.88
2022-10-22T08:49:48.878Z,5.20
2022-10-22T08:52:19.812Z,4.55
2022-10-22T08:54:59.493Z,5.47
2022-10-22T08:57:46.621Z,5.68
2022-10-22T09:00:33.328Z,3.30
2022-10-22T09:03:27.955Z,4.32
2022-10-22T09:05:59.507Z,3.93
2022-10-22T09:08:26.927Z,5.93
2022-10-22T09:11:14.626Z,4.00
2022-10-22T09:13:43.780Z,4.18
2022-10-22T09:16:19.986Z,5.00
2022-10-22T09:19:35.417Z,5.00
2022-10-22T09:22:13.034Z,3.97
2022-10-22T09:24:47.022Z,3.78
2022-10-22T09:27:28.499Z,4.35
2022-10-22T09:29:55.713Z,4.80
2022-10-22T09:32:23.515Z,4.55
2022-10-22T09:34:55.512Z,4.63
2022-10-22T09:37:27.134Z,3.42
2022-10-22T09:39:55.798Z,3.10
2022-10-22T09:42:23.919Z,7.32
2022-10-22T09:44:57.721Z,3.75
2022-10-22T09:47:42.630Z,3.88
2022-10-22T09:50:27.552Z,4.20
2022-10-22T09:53:03.425Z,4.40
2022-10-22T09:55:30.743Z,5.38
2022-10-22T09:58:00.596Z,4.25
2022-10-22T10:00:28.678Z,3.97
2022-10-22T10:03:00.829Z,4.75
2022-10-22T10:05:36.940Z,3.83
2022-10-22T10:08:15.944Z,3.95
2022-10-22T10:10:51.931Z,4.72
2022-10-22T10:14:16.083Z,3.58
2022-10-22T10:17:01.386Z,3.50
2022-10-22T10:19:34.368Z,4.70
2022-10-22T10:22:20.980Z,4.78
2022-10-22T10:25:11.556Z,4.25
2022-10-22T10:27:43.601Z,6.22
2022-10-22T10:30:18.281Z,3.80
2022-10-22T10:35:48.087Z,4.50
2022-10-22T10:38:41.835Z,3.90
2022-10-22T10:41:33.655Z,3.88
2022-10-22T10:44:22.670Z,3.72
2022-10-22T10:47:27.463Z,2.92
2022-10-22T10:50:01.121Z,5.10
2022-10-22T10:52:33.450Z,3.00
2022-10-22T10:55:13.625Z,3.47
2022-10-22T10:57:58.108Z,3.35
2022-10-22T11:00:25.592Z,4.07
2022-10-22T11:03:30.467Z,4.22
2022-10-22T11:06:07.996Z,4.88
2022-10-22T11:08:42.074Z,4.88
2022-10-22T11:13:56.891Z,4.95
2022-10-22T11:16:32.812Z,3.40
2022-10-22T11:19:15.528Z,4.53
2022-10-22T11:22:26.481Z,3.22
2022-10-22T11:25:25.245Z,2.78
2022-10-22T11:28:05.652Z,3.58
2022-10-22T11:30:38.146Z,3.47
2022-10-22T11:33:15.148Z,3.20
2022-10-22T11:35:45.045Z,3.75
2022-10-22T11:38:16.584Z,3.53
2022-10-22T11:40:57.119Z,4.32
2022-10-22T11:43:52.773Z,3.72
2022-10-22T11:49:21.763Z,3.70
2022-10-22T11:51:50.112Z,2.67
2022-10-22T11:54:31.055Z,3.60
2022-10-22T11:57:13.538Z,2.47
2022-10-22T12:00:01.561Z,3.55
2022-10-22T12:02:42.318Z,3.97
2022-10-22T12:05:26.071Z,3.20
2022-10-22T12:08:21.987Z,2.78
2022-10-22T12:10:58.542Z,2.75
2022-10-22T12:13:32.053Z,3.00
2022-10-22T12:16:03.981Z,3.20
2022-10-22T12:18:40.511Z,4.15
2022-10-22T12:21:14.455Z,3.75
2022-10-22T12:23:42.678Z,2.92
2022-10-22T12:26:27.852Z,4.55
2022-10-22T12:28:59.942Z,4.18
2022-10-22T12:31:28.983Z,3.05
2022-10-22T12:34:00.472Z,4.57
2022-10-22T12:36:29.080Z,2.65
2022-10-22T12:39:00.862Z,3.47
2022-10-22T12:41:36.820Z,2.75
2022-10-22T12:44:05.582Z,3.05
2022-10-22T12:46:36.830Z,2.88
2022-10-22T12:49:08.745Z,3.45
2022-10-22T12:51:36.477Z,4.35
2022-10-22T12:54:26.237Z,3.50
2022-10-22T12:56:55.650Z,3.40
2022-10-22T12:59:36.203Z,2.80
2022-10-22T13:02:13.546Z,2.65
2022-10-22T13:04:41.407Z,4.93
2022-10-22T13:07:18.441Z,3.25
2022-10-22T13:09:49.123Z,2.95
2022-10-22T13:12:26.441Z,4.32
2022-10-22T13:14:54.206Z,2.80
2022-10-22T13:17:40.224Z,3.15
2022-10-22T13:20:23.808Z,2.90
2022-10-22T13:23:03.420Z,3.50
2022-10-22T13:25:33.544Z,2.85
2022-10-22T13:28:20.357Z,4.07
2022-10-22T13:30:58.472Z,3.35
2022-10-22T13:33:34.484Z,4.03
2022-10-22T13:36:02.052Z,4.35
2022-10-22T13:38:29.616Z,4.20
2022-10-22T13:40:57.769Z,6.75
2022-10-22T13:43:25.633Z,3.70
2022-10-22T13:45:57.942Z,3.45
2022-10-22T13:48:26.544Z,7.57
2022-10-22T13:50:54.932Z,3.75
2022-10-22T13:53:28.453Z,4.78
2022-10-22T13:55:55.644Z,7.20
2022-10-22T13:58:25.253Z,4.63
2022-10-22T14:00:57.213Z,5.05
2022-10-22T14:03:34.812Z,6.53
2022-10-22T14:06:02.275Z,4.97
2022-10-22T14:08:29.637Z,6.32
2022-10-22T14:10:56.915Z,6.40
2022-10-22T14:13:24.150Z,7.22
2022-10-22T14:15:52.723Z,6.05
2022-10-22T14:18:29.152Z,6.45
2022-10-22T14:21:00.483Z,7.25
2022-10-22T14:23:31.134Z,6.18
2022-10-22T14:26:01.066Z,5.68
2022-10-22T14:28:31.347Z,6.57
2022-10-22T14:30:59.131Z,8.43
2022-10-22T14:33:35.467Z,11.13
2022-10-22T14:36:03.313Z,11.88
2022-10-22T14:38:30.804Z,14.85
2022-10-22T14:40:59.951Z,16.15
2022-10-22T14:43:31.394Z,11.48
2022-10-22T14:45:58.903Z,15.15
2022-10-22T14:48:26.022Z,14.90
2022-10-22T14:50:54.848Z,14.20
2022-10-22T14:53:22.053Z,9.85
2022-10-22T14:55:51.632Z,10.18
2022-10-22T14:58:19.138Z,11.25
2022-10-22T15:00:46.315Z,8.35
2022-10-22T15:03:13.690Z,9.30
2022-10-22T15:05:45.161Z,9.52
2022-10-22T15:08:14.663Z,10.40
2022-10-22T15:10:42.301Z,10.48
2022-10-22T15:13:10.026Z,10.45
2022-10-22T15:15:40.336Z,11.85
2022-10-22T15:18:08.597Z,11.80
2022-10-22T15:20:36.109Z,13.48
2022-10-22T15:23:03.818Z,15.82
2022-10-22T15:25:31.010Z,13.77
2022-10-22T15:28:01.839Z,15.95
2022-10-22T15:30:34.894Z,22.67
2022-10-22T15:33:02.469Z,21.92
2022-10-22T15:35:29.726Z,16.90
2022-10-22T15:37:56.929Z,15.70
2022-10-22T15:40:24.269Z,16.55
2022-10-22T15:42:51.643Z,14.50
2022-10-22T15:45:21.430Z,11.90
2022-10-22T15:47:49.650Z,12.77
2022-10-22T15:50:18.130Z,14.80
2022-10-22T15:52:45.266Z,15.50
2022-10-22T15:57:40.891Z,15.48
2022-10-22T16:00:09.000Z,10.50
2022-10-22T16:02:42.635Z,11.23
2022-10-22T16:05:10.374Z,12.23
2022-10-22T16:07:37.535Z,12.45
2022-10-22T16:10:07.851Z,14.82
2022-10-22T16:12:36.392Z,12.43
2022-10-22T16:15:07.851Z,12.70
2022-10-22T16:17:35.157Z,14.10
2022-10-22T16:20:02.403Z,10.85
2022-10-22T16:22:30.336Z,13.73
2022-10-22T16:24:58.752Z,13.82
2022-10-22T16:27:25.913Z,20.08
2022-10-22T16:29:53.297Z,16.98
2022-10-22T16:32:20.777Z,18.25
2022-10-22T16:34:47.998Z,14.23
2022-10-22T16:37:15.246Z,18.02
2022-10-22T16:39:42.505Z,18.70
2022-10-22T16:42:09.805Z,20.70
2022-10-22T16:44:37.079Z,18.48
2022-10-22T16:47:04.319Z,20.40
2022-10-22T16:49:31.471Z,22.45
2022-10-22T16:51:58.940Z,21.65
2022-10-22T16:54:26.388Z,24.60
2022-10-22T16:56:53.614Z,21.02
2022-10-22T16:59:20.896Z,31.20
2022-10-22T17:01:48.187Z,38.08
2022-10-22T17:04:17.697Z,35.65
2022-10-22T17:06:45.049Z,42.58
2022-10-22T17:09:12.320Z,38.03
2022-10-22T17:11:42.604Z,42.78
2022-10-22T17:14:11.614Z,30.98
2022-10-22T17:16:39.041Z,26.67
2022-10-22T17:19:06.493Z,24.70
2022-10-22T17:21:34.288Z,19.48
2022-10-22T17:24:01.541Z,23.33
2022-10-22T17:26:28.766Z,19.60
2022-10-22T17:28:56.296Z,25.35
2022-10-22T17:31:33.075Z,18.75
2022-10-22T17:34:00.519Z,19.58
2022-10-22T17:36:33.216Z,15.38
2022-10-22T17:39:06.471Z,15.15
2022-10-22T17:41:36.750Z,15.90
2022-10-22T17:44:06.822Z,18.05
2022-10-22T17:46:34.121Z,18.85
2022-10-22T17:49:08.362Z,17.77
2022-10-22T17:51:36.348Z,18.00
2022-10-22T17:54:07.315Z,15.32
2022-10-22T17:56:37.828Z,17.67
2022-10-22T17:59:05.360Z,15.70
2022-10-22T18:01:36.567Z,13.75
2022-10-22T18:04:06.647Z,14.38
2022-10-22T18:06:36.821Z,12.65
2022-10-22T18:09:06.207Z,14.88
2022-10-22T18:11:36.229Z,13.23
2022-10-22T18:14:04.975Z,13.05
2022-10-22T18:16:32.559Z,15.05
2022-10-22T18:19:00.117Z,14.68
2022-10-22T18:21:29.336Z,16.60
2022-10-22T18:23:59.601Z,14.25
2022-10-22T18:26:28.034Z,18.02
2022-10-22T18:28:57.261Z,18.20
2022-10-22T18:31:28.448Z,19.38
2022-10-22T18:33:56.198Z,17.58
2022-10-22T18:36:26.936Z,14.73
2022-10-22T18:38:57.128Z,13.07
2022-10-22T18:41:25.173Z,13.48
2022-10-22T18:44:01.438Z,15.95
2022-10-22T18:46:30.495Z,13.07
2022-10-22T18:49:00.007Z,13.30
2022-10-22T18:51:32.984Z,16.95
2022-10-22T18:54:22.128Z,13.10
2022-10-22T18:56:47.996Z,15.32
2022-10-22T18:59:21.639Z,12.98
2022-10-22T19:01:49.673Z,11.93
2022-10-22T19:04:16.979Z,13.93
2022-10-22T19:06:47.737Z,11.80
2022-10-22T19:09:16.395Z,11.60
2022-10-22T19:11:48.076Z,11.40
2022-10-22T19:14:20.062Z,10.27
2022-10-22T19:16:47.172Z,12.60
2022-10-22T19:19:18.489Z,11.30
2022-10-22T19:21:47.892Z,10.63
2022-10-22T19:24:18.712Z,10.10
2022-10-22T19:26:49.827Z,10.82
2022-10-22T19:29:19.679Z,11.75
2022-10-22T19:31:47.695Z,9.45
2022-10-22T19:34:15.232Z,10.15
2022-10-22T19:36:43.068Z,9.88
2022-10-22T19:39:10.843Z,11.10
2022-10-22T19:41:39.005Z,9.27
2022-10-22T19:44:06.358Z,9.88
2022-10-22T19:46:33.882Z,8.80
2022-10-22T19:49:03.677Z,9.10
2022-10-22T19:51:33.536Z,12.23
2022-10-22T19:54:07.195Z,15.45
2022-10-22T19:56:36.309Z,11.77
2022-10-22T19:59:05.007Z,9.93
2022-10-22T20:01:33.642Z,10.18
2022-10-22T20:04:04.542Z,8.60
2022-10-22T20:06:32.604Z,10.90
2022-10-22T20:09:00.985Z,9.30
2022-10-22T20:11:31.088Z,11.18
2022-10-22T20:13:59.201Z,17.70
2022-10-22T20:16:30.253Z,12.20
2022-10-22T20:19:04.326Z,8.07
2022-10-22T20:21:31.595Z,9.63
2022-10-22T20:23:59.445Z,13.57
2022-10-22T20:26:31.928Z,12.85
2022-10-22T20:28:59.290Z,16.50
2022-10-22T20:31:28.870Z,24.45
2022-10-22T20:34:01.589Z,18.85
2022-10-22T20:36:31.593Z,19.00
2022-10-22T20:39:06.446Z,17.23
2022-10-22T20:41:35.353Z,18.55
2022-10-22T20:44:02.652Z,20.63
2022-10-22T20:46:32.280Z,20.30
2022-10-22T20:49:03.557Z,18.92
2022-10-22T20:51:30.760Z,22.83
2022-10-22T20:53:58.570Z,18.75
2022-10-22T20:56:26.690Z,18.17
2022-10-22T20:59:04.324Z,18.45
2022-10-22T21:01:44.713Z,17.00
2022-10-22T21:04:14.525Z,13.63
2022-10-22T21:06:43.557Z,17.40
2022-10-22T21:09:14.021Z,12.55
2022-10-22T21:11:45.225Z,12.52
2022-10-22T21:14:15.883Z,18.55
2022-10-22T21:16:54.096Z,12.85
2022-10-22T21:19:23.897Z,22.92
2022-10-22T21:21:51.117Z,14.80
2022-10-22T21:24:19.879Z,24.55
2022-10-22T21:26:47.106Z,18.30
2022-10-22T21:29:17.243Z,20.90
2022-10-22T21:31:44.580Z,15.32
2022-10-22T21:34:15.088Z,17.50
2022-10-22T21:36:45.139Z,15.70
2022-10-22T21:39:13.718Z,14.80
2022-10-22T21:41:42.519Z,25.67
2022-10-22T21:44:10.271Z,18.08
2022-10-22T21:46:37.643Z,23.33
2022-10-22T21:49:06.067Z,19.83
2022-10-22T21:51:37.387Z,17.02
2022-10-22T21:54:05.234Z,26.92
2022-10-22T21:56:34.913Z,16.00
2022-10-22T21:59:03.803Z,19.48
2022-10-22T22:01:31.223Z,18.52
2022-10-22T22:03:59.050Z,26.15
2022-10-22T22:06:30.787Z,20.67
2022-10-22T22:09:00.322Z,16.10
2022-10-22T22:11:28.863Z,17.15
2022-10-22T22:13:58.400Z,16.30
2022-10-22T22:16:28.973Z,17.80
2022-10-22T22:18:59.379Z,18.63
2022-10-22T22:21:26.955Z,23.95
2022-10-22T22:23:54.103Z,13.60
2022-10-22T22:26:26.967Z,21.95
2022-10-22T22:28:58.425Z,22.48
2022-10-22T22:31:28.709Z,15.60
2022-10-22T22:34:04.447Z,24.55
2022-10-22T22:36:37.731Z,21.80
2022-10-22T22:39:08.790Z,17.90
2022-10-22T22:41:36.173Z,16.25
2022-10-22T22:44:05.391Z,19.02
2022-10-22T22:46:32.927Z,12.30
2022-10-22T22:49:00.600Z,17.83
2022-10-22T22:51:29.277Z,19.58
2022-10-22T22:54:00.607Z,18.13
2022-10-22T22:56:29.920Z,14.82
2022-10-22T22:58:57.868Z,16.48
2022-10-22T23:01:27.178Z,27.20
2022-10-22T23:03:59.125Z,14.70
2022-10-22T23:06:28.521Z,17.90
2022-10-22T23:08:57.439Z,11.60
2022-10-22T23:11:26.787Z,14.50
2022-10-22T23:14:01.454Z,15.73
2022-10-22T23:16:32.651Z,13.95
2022-10-22T23:19:01.215Z,18.88
2022-10-22T23:21:35.438Z,16.20
2022-10-22T23:24:06.553Z,18.13
2022-10-22T23:26:37.235Z,20.73
2022-10-22T23:29:24.710Z,25.05
2022-10-22T23:31:52.969Z,25.95
2022-10-22T23:34:23.319Z,33.92
2022-10-22T23:36:52.730Z,24.48
2022-10-22T23:39:23.391Z,28.35
2022-10-22T23:41:53.283Z,25.92
2022-10-22T23:44:23.833Z,32.58
2022-10-22T23:46:51.389Z,25.27
2022-10-22T23:49:19.108Z,35.58
2022-10-22T23:51:46.560Z,26.35
2022-10-22T23:54:16.773Z,23.77
2022-10-22T23:56:44.924Z,36.50
